Time;durP1;ratioP1;P1;durP2;ratioP2;P2;SDS_P1;SDS_P2;PMS_P1;PMS_P2;Temp;Humidity;BMP_temperature;BMP_pressure;BME280_temperature;BME280_humidity;BME280_pressure;Samples;Min_cycle;Max_cycle;Signal;HPM_P1;HPM_P2
2021/08/04 00:01:35;;;;;;;0.22;0.22;;;;;;;;;;6285309;22;20173;-91
2021/08/04 00:04:40;;;;;;;0.35;0.35;;;;;;;;;;6286465;22;20205;-91
2021/08/04 00:07:45;;;;;;;0.22;0.22;;;;;;;;;;6286384;22;20166;-91
2021/08/04 00:10:51;;;;;;;0.40;0.40;;;;;;;;;;6286756;22;20200;-91
2021/08/04 00:13:56;;;;;;;2.85;0.57;;;;;;;;;;6286769;22;20830;-90
2021/08/04 00:17:01;;;;;;;1.40;0.75;;;;;;;;;;6285082;22;20194;-90
2021/08/04 00:20:07;;;;;;;0.73;0.40;;;;;;;;;;6287521;22;20149;-91
2021/08/04 00:23:12;;;;;;;0.30;0.30;;;;;;;;;;6286532;22;20639;-90
2021/08/04 00:26:18;;;;;;;0.28;0.28;;;;;;;;;;6268983;22;20228;-91
2021/08/04 00:29:22;;;;;;;0.75;0.75;;;;;;;;;;6289291;22;20180;-90
2021/08/04 00:32:28;;;;;;;0.45;0.45;;;;;;;;;;6287195;22;20201;-90
2021/08/04 00:35:33;;;;;;;3.08;0.93;;;;;;;;;;6286175;22;20201;-89
2021/08/04 00:38:38;;;;;;;0.22;0.22;;;;;;;;;;6286276;22;20170;-90
2021/08/04 00:41:45;;;;;;;0.30;0.30;;;;;;;;;;6287092;22;20153;-90
2021/08/04 00:44:50;;;;;;;0.57;0.57;;;;;;;;;;6287025;22;20165;-90
2021/08/04 00:47:57;;;;;;;0.25;0.25;;;;;;;;;;6288296;22;20222;-89
2021/08/04 00:51:02;;;;;;;1.00;0.50;;;;;;;;;;6286023;22;20166;-90
2021/08/04 00:54:08;;;;;;;0.22;0.22;;;;;;;;;;6287268;22;20185;-90
2021/08/04 00:57:14;;;;;;;0.50;0.50;;;;;;;;;;6286783;22;20193;-91
2021/08/04 01:00:19;;;;;;;0.55;0.55;;;;;;;;;;6286185;22;20181;-91
2021/08/04 01:03:27;;;;;;;0.80;0.80;;;;;;;;;;6288879;22;20196;-90
2021/08/04 01:06:36;;;;;;;0.77;0.77;;;;;;;;;;6288613;22;20177;-90
2021/08/04 01:09:44;;;;;;;0.50;0.50;;;;;;;;;;6287240;22;20629;-89
2021/08/04 01:12:55;;;;;;;0.30;0.30;;;;;;;;;;6288296;22;20169;-91
2021/08/04 01:16:04;;;;;;;0.82;0.80;;;;;;;;;;6287503;22;20189;-91
2021/08/04 01:19:14;;;;;;;1.45;0.73;;;;;;;;;;6287896;22;20166;-90
2021/08/04 01:22:27;;;;;;;1.85;1.10;;;;;;;;;;6288570;22;20154;-91
2021/08/04 01:25:34;;;;;;;0.68;0.68;;;;;;;;;;6287603;22;20527;-90
2021/08/04 01:28:44;;;;;;;6.03;0.57;;;;;;;;;;6288370;22;20261;-90
2021/08/04 01:31:50;;;;;;;0.50;0.50;;;;;;;;;;6288596;22;20217;-89
2021/08/04 01:34:56;;;;;;;0.88;0.88;;;;;;;;;;6270124;22;20170;-89
2021/08/04 01:38:02;;;;;;;0.93;0.75;;;;;;;;;;6287925;22;20170;-90
2021/08/04 01:41:07;;;;;;;0.75;0.60;;;;;;;;;;6287561;22;20169;-91
2021/08/04 01:44:15;;;;;;;0.43;0.43;;;;;;;;;;6287470;22;20166;-91
2021/08/04 01:47:20;;;;;;;0.60;0.60;;;;;;;;;;6287935;22;20178;-90
2021/08/04 01:50:27;;;;;;;0.75;0.55;;;;;;;;;;6298018;22;20181;-91
2021/08/04 01:53:33;;;;;;;0.88;0.55;;;;;;;;;;6290532;22;20198;-90
2021/08/04 01:56:40;;;;;;;0.40;0.40;;;;;;;;;;6288634;22;20193;-90
2021/08/04 01:59:46;;;;;;;0.45;0.45;;;;;;;;;;6271774;22;20142;-90
2021/08/04 02:02:52;;;;;;;0.40;0.40;;;;;;;;;;6289991;22;20620;-92
2021/08/04 02:05:57;;;;;;;0.40;0.40;;;;;;;;;;6270517;22;20281;-90
2021/08/04 02:09:03;;;;;;;1.05;0.65;;;;;;;;;;6290055;22;20200;-90
2021/08/04 02:12:11;;;;;;;0.70;0.70;;;;;;;;;;6290157;22;20165;-89
2021/08/04 02:15:19;;;;;;;0.73;0.63;;;;;;;;;;6287365;22;20192;-90
2021/08/04 02:18:27;;;;;;;0.68;0.68;;;;;;;;;;6291387;22;20173;-91
2021/08/04 02:21:33;;;;;;;1.08;1.00;;;;;;;;;;6289036;22;20621;-90
2021/08/04 02:24:42;;;;;;;0.30;0.30;;;;;;;;;;6289574;22;20208;-89
2021/08/04 02:27:49;;;;;;;0.30;0.30;;;;;;;;;;6289901;22;20180;-90
2021/08/04 02:30:56;;;;;;;0.47;0.47;;;;;;;;;;6287181;22;20233;-90
2021/08/04 02:34:02;;;;;;;0.57;0.57;;;;;;;;;;6288980;22;20170;-90
2021/08/04 02:37:08;;;;;;;2.80;1.27;;;;;;;;;;6288219;22;20201;-89
2021/08/04 02:40:14;;;;;;;0.50;0.50;;;;;;;;;;6288625;22;20174;-90
2021/08/04 02:43:20;;;;;;;0.85;0.70;;;;;;;;;;6289174;22;20178;-90
2021/08/04 02:46:29;;;;;;;0.68;0.68;;;;;;;;;;6287300;22;20213;-91
2021/08/04 02:49:35;;;;;;;0.35;0.35;;;;;;;;;;6288642;22;20154;-90
2021/08/04 02:52:41;;;;;;;0.40;0.40;;;;;;;;;;6288316;22;20185;-90
2021/08/04 02:55:46;;;;;;;1.17;0.95;;;;;;;;;;6270682;22;20487;-91
2021/08/04 02:58:51;;;;;;;1.38;0.82;;;;;;;;;;6287995;22;20169;-90
2021/08/04 03:01:58;;;;;;;0.25;0.25;;;;;;;;;;6287909;22;20186;-90
2021/08/04 03:05:03;;;;;;;0.45;0.45;;;;;;;;;;6288285;22;20377;-89
2021/08/04 03:08:08;;;;;;;0.40;0.40;;;;;;;;;;6287445;22;20169;-90
2021/08/04 03:11:13;;;;;;;1.17;1.08;;;;;;;;;;6288155;22;20169;-90
2021/08/04 03:14:18;;;;;;;0.28;0.28;;;;;;;;;;6288421;22;20209;-90
2021/08/04 03:17:25;;;;;;;0.57;0.57;;;;;;;;;;6286625;22;20329;-91
2021/08/04 03:20:30;;;;;;;0.30;0.30;;;;;;;;;;6287909;22;20173;-91
2021/08/04 03:23:35;;;;;;;0.40;0.40;;;;;;;;;;6270978;22;20162;-89
2021/08/04 03:26:41;;;;;;;0.43;0.43;;;;;;;;;;6288499;22;20286;-90
2021/08/04 03:29:46;;;;;;;1.20;0.90;;;;;;;;;;6287851;22;20166;-90
2021/08/04 03:32:52;;;;;;;0.47;0.47;;;;;;;;;;6289268;22;20170;-91
2021/08/04 03:36:00;;;;;;;0.40;0.40;;;;;;;;;;6290799;22;20177;-89
2021/08/04 03:39:05;;;;;;;0.52;0.50;;;;;;;;;;6288681;22;20185;-89
2021/08/04 03:42:10;;;;;;;0.30;0.30;;;;;;;;;;6290009;22;20212;-91
2021/08/04 03:45:16;;;;;;;0.50;0.50;;;;;;;;;;6289234;22;20162;-89
2021/08/04 03:48:22;;;;;;;0.43;0.43;;;;;;;;;;6289569;22;20164;-89
2021/08/04 03:51:27;;;;;;;1.05;0.70;;;;;;;;;;6286817;22;20161;-90
2021/08/04 03:54:32;;;;;;;0.50;0.50;;;;;;;;;;6286078;22;20173;-91
2021/08/04 03:57:37;;;;;;;0.40;0.40;;;;;;;;;;6288005;22;20185;-89
2021/08/04 04:01:09;;;;;;;0.75;0.65;;;;;;;;;;6288079;22;20166;-89
2021/08/04 04:04:16;;;;;;;0.32;0.32;;;;;;;;;;6287514;22;20173;-88
2021/08/04 04:07:22;;;;;;;0.35;0.35;;;;;;;;;;6269804;22;20165;-89
2021/08/04 04:10:27;;;;;;;1.00;0.73;;;;;;;;;;6284885;22;20229;-89
2021/08/04 04:13:32;;;;;;;0.20;0.20;;;;;;;;;;6287741;22;20145;-89
2021/08/04 04:16:37;;;;;;;0.20;0.20;;;;;;;;;;6287325;22;20236;-89
2021/08/04 04:19:43;;;;;;;0.30;0.30;;;;;;;;;;6286538;22;20671;-90
2021/08/04 04:22:48;;;;;;;0.35;0.35;;;;;;;;;;6287721;22;20161;-89
2021/08/04 04:25:52;;;;;;;0.45;0.45;;;;;;;;;;6289732;22;20169;-90
2021/08/04 04:28:59;;;;;;;0.38;0.38;;;;;;;;;;6288024;22;20166;-91
2021/08/04 04:32:04;;;;;;;0.43;0.43;;;;;;;;;;6288348;22;20166;-91
2021/08/04 04:35:12;;;;;;;0.30;0.30;;;;;;;;;;6286442;22;20161;-91
2021/08/04 04:38:17;;;;;;;0.65;0.40;;;;;;;;;;6286906;22;20185;-90
2021/08/04 04:41:22;;;;;;;0.68;0.68;;;;;;;;;;6288642;22;20173;-91
2021/08/04 04:44:27;;;;;;;0.50;0.50;;;;;;;;;;6287913;22;20166;-91
2021/08/04 04:47:32;;;;;;;1.33;0.57;;;;;;;;;;6271580;22;20601;-91
2021/08/04 04:50:42;;;;;;;0.43;0.43;;;;;;;;;;6289700;22;20212;-90
2021/08/04 04:53:47;;;;;;;0.20;0.20;;;;;;;;;;6289507;22;20197;-91
2021/08/04 04:56:52;;;;;;;0.47;0.47;;;;;;;;;;6287461;22;20232;-89
2021/08/04 04:59:57;;;;;;;0.30;0.30;;;;;;;;;;6288837;22;20189;-92
2021/08/04 05:03:02;;;;;;;0.35;0.35;;;;;;;;;;6270942;22;20162;-90
2021/08/04 05:06:08;;;;;;;0.25;0.25;;;;;;;;;;6288363;22;20165;-90
2021/08/04 05:09:13;;;;;;;0.43;0.43;;;;;;;;;;6288695;22;20169;-89
2021/08/04 05:12:19;;;;;;;0.35;0.35;;;;;;;;;;6286995;22;20150;-90
2021/08/04 05:15:24;;;;;;;0.70;0.70;;;;;;;;;;6287959;22;20193;-91
2021/08/04 05:18:29;;;;;;;0.40;0.40;;;;;;;;;;6290721;22;20177;-90
2021/08/04 05:21:35;;;;;;;0.40;0.40;;;;;;;;;;6289368;22;20162;-90
2021/08/04 05:24:40;;;;;;;0.40;0.40;;;;;;;;;;6270589;22;20153;-91
2021/08/04 05:27:45;;;;;;;0.30;0.30;;;;;;;;;;6291264;22;20160;-90
2021/08/04 05:30:57;;;;;;;0.50;0.35;;;;;;;;;;6287465;22;20166;-90
2021/08/04 05:34:03;;;;;;;0.30;0.30;;;;;;;;;;6287785;22;20497;-91
2021/08/04 05:37:09;;;;;;;0.30;0.30;;;;;;;;;;6290453;22;20394;-91
2021/08/04 05:40:15;;;;;;;0.30;0.30;;;;;;;;;;6288971;22;20166;-90
2021/08/04 05:43:20;;;;;;;0.52;0.52;;;;;;;;;;6288384;22;20161;-90
2021/08/04 05:46:26;;;;;;;1.83;0.38;;;;;;;;;;6288183;22;20157;-91
2021/08/04 05:49:31;;;;;;;0.30;0.30;;;;;;;;;;6291027;22;20174;-90
2021/08/04 05:52:38;;;;;;;1.38;0.63;;;;;;;;;;6287593;22;20185;-92
2021/08/04 05:55:42;;;;;;;0.20;0.20;;;;;;;;;;6289448;22;20161;-90
2021/08/04 05:58:58;;;;;;;0.60;0.60;;;;;;;;;;6290127;22;20189;-90
2021/08/04 06:02:29;;;;;;;0.60;0.60;;;;;;;;;;6271648;22;20181;-90
2021/08/04 06:05:44;;;;;;;0.47;0.47;;;;;;;;;;6271272;22;20289;-89
2021/08/04 06:13:14;;;;;;;0.30;0.30;;;;;;;;;;6291638;22;20242;-90
2021/08/04 06:16:33;;;;;;;0.70;0.70;;;;;;;;;;6272077;22;20166;-91
2021/08/04 06:20:05;;;;;;;0.73;0.57;;;;;;;;;;6288614;22;20174;-90
2021/08/04 06:23:17;;;;;;;2.92;0.63;;;;;;;;;;6269660;22;20177;-90
2021/08/04 06:26:54;;;;;;;1.83;0.93;;;;;;;;;;6287720;22;20166;-90
2021/08/04 06:33:40;;;;;;;0.30;0.30;;;;;;;;;;6273967;22;20238;-90
2021/08/04 06:36:45;;;;;;;1.27;1.17;;;;;;;;;;6291366;22;20316;-91
2021/08/04 06:39:51;;;;;;;0.30;0.30;;;;;;;;;;6292802;22;20217;-91
2021/08/04 06:42:58;;;;;;;0.40;0.40;;;;;;;;;;6292078;22;20170;-93
2021/08/04 06:46:09;;;;;;;0.20;0.20;;;;;;;;;;6287917;22;20166;-92
2021/08/04 06:49:14;;;;;;;0.30;0.30;;;;;;;;;;6289593;22;20149;-90
2021/08/04 06:52:34;;;;;;;0.38;0.38;;;;;;;;;;6289593;22;20613;-92
2021/08/04 06:59:21;;;;;;;0.60;0.60;;;;;;;;;;6270140;22;20228;-91
2021/08/04 07:02:40;;;;;;;0.50;0.50;;;;;;;;;;6289396;22;20613;-91
2021/08/04 07:05:59;;;;;;;0.43;0.43;;;;;;;;;;6288811;22;20193;-90
2021/08/04 07:09:13;;;;;;;0.40;0.40;;;;;;;;;;6288719;22;20216;-90
2021/08/04 07:12:47;;;;;;;0.35;0.35;;;;;;;;;;6288345;22;20222;-90
2021/08/04 07:16:09;;;;;;;0.43;0.43;;;;;;;;;;6290150;22;20166;-90
2021/08/04 07:19:31;;;;;;;1.85;1.35;;;;;;;;;;6269597;22;20210;-90
2021/08/04 07:26:27;;;;;;;0.30;0.30;;;;;;;;;;6292349;22;20186;-91
2021/08/04 07:29:45;;;;;;;0.30;0.30;;;;;;;;;;6274217;22;20185;-91
2021/08/04 07:33:01;;;;;;;0.95;0.73;;;;;;;;;;6292392;22;20225;-91
2021/08/04 07:36:14;;;;;;;5.22;2.30;;;;;;;;;;6273487;22;20169;-90
2021/08/04 07:39:22;;;;;;;6.78;2.50;;;;;;;;;;6291481;22;20242;-91
2021/08/04 07:42:33;;;;;;;5.47;2.30;;;;;;;;;;6290074;22;20173;-91
2021/08/04 07:49:24;;;;;;;5.22;2.10;;;;;;;;;;6273151;22;20172;-90
2021/08/04 07:52:46;;;;;;;5.28;2.00;;;;;;;;;;6291778;22;20157;-91
2021/08/04 07:56:06;;;;;;;5.72;2.08;;;;;;;;;;6291345;22;20166;-90
2021/08/04 08:02:54;;;;;;;2.95;1.85;;;;;;;;;;6270073;22;20233;-91
2021/08/04 08:06:36;;;;;;;8.57;2.00;;;;;;;;;;6287907;22;20179;-89
2021/08/04 08:09:52;;;;;;;5.15;2.22;;;;;;;;;;6288842;22;20548;-90
2021/08/04 08:13:08;;;;;;;7.57;2.30;;;;;;;;;;6289718;22;20209;-90
2021/08/04 08:20:11;;;;;;;3.58;2.00;;;;;;;;;;6263915;22;20246;-92
2021/08/04 08:26:57;;;;;;;7.80;2.30;;;;;;;;;;6290155;22;20157;-91
2021/08/04 08:30:45;;;;;;;4.32;2.22;;;;;;;;;;6289343;22;20593;-90
2021/08/04 08:34:23;;;;;;;5.10;1.88;;;;;;;;;;6288275;22;20166;-88
2021/08/04 08:37:45;;;;;;;7.22;2.17;;;;;;;;;;6269776;22;20170;-91
2021/08/04 08:41:00;;;;;;;6.40;1.92;;;;;;;;;;6291154;22;20505;-92
2021/08/04 08:44:32;;;;;;;3.38;1.90;;;;;;;;;;6290747;22;20174;-90
2021/08/04 08:47:56;;;;;;;3.92;1.88;;;;;;;;;;6290274;22;20249;-89
2021/08/04 08:51:22;;;;;;;3.72;2.05;;;;;;;;;;6271071;22;20169;-90
2021/08/04 08:54:33;;;;;;;4.72;2.00;;;;;;;;;;6290078;22;20189;-90
2021/08/04 08:57:46;;;;;;;3.97;1.60;;;;;;;;;;6287907;22;20157;-93
2021/08/04 09:01:06;;;;;;;9.32;4.70;;;;;;;;;;6291640;22;20190;-93
2021/08/04 09:04:30;;;;;;;2.53;1.40;;;;;;;;;;6278120;22;20161;-88
2021/08/04 09:07:47;;;;;;;2.90;1.63;;;;;;;;;;6276057;22;20208;-90
2021/08/04 09:11:14;;;;;;;3.55;1.70;;;;;;;;;;6294303;22;20174;-92
2021/08/04 09:14:47;;;;;;;4.63;1.60;;;;;;;;;;6295645;22;20216;-91
2021/08/04 09:18:20;;;;;;;3.97;1.60;;;;;;;;;;6293613;22;20181;-89
2021/08/04 09:21:53;;;;;;;5.97;1.67;;;;;;;;;;6296505;22;20194;-90
2021/08/04 09:25:25;;;;;;;1.95;1.20;;;;;;;;;;6295867;22;20181;-90
2021/08/04 09:28:54;;;;;;;2.50;1.50;;;;;;;;;;6279886;22;20632;-91
2021/08/04 09:32:18;;;;;;;4.28;1.90;;;;;;;;;;6297658;22;20185;-90
2021/08/04 09:36:03;;;;;;;4.57;1.70;;;;;;;;;;6295732;22;20169;-91
2021/08/04 09:39:32;;;;;;;2.90;1.70;;;;;;;;;;6290879;22;20208;-90
2021/08/04 09:42:58;;;;;;;4.38;1.98;;;;;;;;;;6290489;22;20170;-89
2021/08/04 09:46:22;;;;;;;3.38;1.77;;;;;;;;;;6277296;22;20727;-91
2021/08/04 09:49:29;;;;;;;3.85;1.67;;;;;;;;;;6273322;22;20158;-93
2021/08/04 09:52:59;;;;;;;5.65;1.75;;;;;;;;;;6288857;22;20617;-91
2021/08/04 10:00:09;;;;;;;3.90;1.95;;;;;;;;;;6291167;22;20200;-91
2021/08/04 10:03:42;;;;;;;5.43;2.00;;;;;;;;;;6290965;22;20165;-89
2021/08/04 14:17:18;;;;;;;4.03;1.80;;;;;;;;;;6178447;22;1313940;-88
2021/08/04 14:20:40;;;;;;;;;;;;;;;;;;;;;
2021/08/04 14:27:22;;;;;;;8.73;2.22;;;;;;;;;;6358503;22;20160;-89
2021/08/04 14:34:37;;;;;;;3.42;2.10;;;;;;;;;;6360323;22;20169;-89
2021/08/04 14:41:23;;;;;;;3.83;2.47;;;;;;;;;;6358798;22;20184;-89
2021/08/04 14:44:35;;;;;;;4.57;2.05;;;;;;;;;;6358756;22;20161;-91
2021/08/04 14:47:41;;;;;;;6.43;2.40;;;;;;;;;;6360350;22;20172;-90
2021/08/04 14:50:51;;;;;;;3.47;2.17;;;;;;;;;;6359996;22;20169;-90
2021/08/04 14:53:56;;;;;;;4.85;2.15;;;;;;;;;;6360339;22;20191;-89
2021/08/04 15:00:31;;;;;;;3.03;1.80;;;;;;;;;;6359667;22;20229;-90
2021/08/04 15:03:36;;;;;;;5.03;2.10;;;;;;;;;;6359310;22;20214;-91
2021/08/04 15:10:37;;;;;;;6.28;2.25;;;;;;;;;;6355660;22;20272;-90
2021/08/04 15:14:03;;;;;;;6.45;2.78;;;;;;;;;;6355788;22;20172;-89
2021/08/04 15:17:18;;;;;;;4.60;1.77;;;;;;;;;;6353624;22;20172;-89
2021/08/04 15:20:38;;;;;;;5.22;1.92;;;;;;;;;;6303523;22;20173;-90
2021/08/04 15:23:54;;;;;;;2.85;1.60;;;;;;;;;;6305421;22;20241;-88
2021/08/04 15:27:20;;;;;;;3.03;1.92;;;;;;;;;;6307313;22;20177;-89
2021/08/04 15:34:11;;;;;;;6.57;2.20;;;;;;;;;;6303864;22;20169;-88
2021/08/04 15:37:32;;;;;;;3.47;1.35;;;;;;;;;;6303544;22;20177;-90
2021/08/04 15:40:49;;;;;;;3.25;1.70;;;;;;;;;;6304239;22;20388;-90
2021/08/04 15:44:16;;;;;;;2.03;1.38;;;;;;;;;;6306190;22;20428;-91
2021/08/04 15:47:43;;;;;;;1.38;1.13;;;;;;;;;;6304628;22;20196;-89
2021/08/04 15:51:10;;;;;;;3.15;1.45;;;;;;;;;;6304052;22;20211;-89
2021/08/04 15:54:38;;;;;;;2.00;1.30;;;;;;;;;;6307413;22;20157;-90
2021/08/04 15:57:59;;;;;;;2.53;1.40;;;;;;;;;;6304486;22;20232;-90
2021/08/04 16:01:16;;;;;;;3.92;2.03;;;;;;;;;;6305113;22;20219;-89
2021/08/04 16:08:07;;;;;;;1.80;1.20;;;;;;;;;;6304548;22;20168;-91
2021/08/04 16:11:18;;;;;;;2.15;1.05;;;;;;;;;;6308208;22;20169;-88
2021/08/04 16:18:20;;;;;;;0.93;0.82;;;;;;;;;;6330356;22;20230;-89
2021/08/04 16:21:41;;;;;;;3.75;1.20;;;;;;;;;;6352335;22;20160;-89
2021/08/04 16:24:56;;;;;;;2.03;1.13;;;;;;;;;;6353499;22;20221;-90
2021/08/04 16:28:01;;;;;;;2.45;0.90;;;;;;;;;;6353045;22;20169;-89
2021/08/04 16:31:17;;;;;;;2.88;1.15;;;;;;;;;;6353543;22;20165;-89
2021/08/04 16:34:34;;;;;;;2.20;0.90;;;;;;;;;;6352241;22;20207;-87
2021/08/04 16:37:53;;;;;;;2.25;1.20;;;;;;;;;;6352058;22;20267;-90
2021/08/04 16:41:11;;;;;;;2.03;1.20;;;;;;;;;;6351134;22;20165;-88
2021/08/04 16:44:48;;;;;;;1.13;1.00;;;;;;;;;;6352055;22;20156;-89
2021/08/04 16:48:05;;;;;;;2.00;1.15;;;;;;;;;;6351428;22;20243;-89
2021/08/04 16:51:15;;;;;;;3.28;1.30;;;;;;;;;;6351615;22;20261;-89
2021/08/04 16:54:33;;;;;;;2.17;1.17;;;;;;;;;;6352741;22;20183;-89
2021/08/04 17:11:44;;;;;;;3.55;1.27;;;;;;;;;;6352975;22;20214;-90
2021/08/04 17:14:51;;;;;;;4.30;1.52;;;;;;;;;;6351093;22;20207;-89
2021/08/04 17:17:56;;;;;;;2.20;1.40;;;;;;;;;;6349351;22;20236;-89
2021/08/04 17:21:02;;;;;;;4.90;1.40;;;;;;;;;;6351847;22;20210;-88
2021/08/04 17:24:08;;;;;;;4.05;1.50;;;;;;;;;;6350870;22;20244;-88
2021/08/04 17:27:14;;;;;;;2.83;1.30;;;;;;;;;;6350481;22;20502;-88
2021/08/04 17:30:20;;;;;;;2.55;1.50;;;;;;;;;;6349322;22;20259;-90
2021/08/04 17:33:39;;;;;;;3.47;1.17;;;;;;;;;;6350018;22;20614;-89
2021/08/04 17:36:53;;;;;;;3.90;1.50;;;;;;;;;;6351503;22;20244;-87
2021/08/04 17:40:08;;;;;;;4.15;1.90;;;;;;;;;;6351274;22;20164;-89
2021/08/04 17:43:21;;;;;;;2.22;1.20;;;;;;;;;;6348980;22;20173;-89
2021/08/04 17:46:34;;;;;;;2.65;1.40;;;;;;;;;;6352303;22;20191;-88
2021/08/04 17:50:02;;;;;;;3.00;1.45;;;;;;;;;;6348896;22;20191;-89
2021/08/04 17:56:48;;;;;;;4.00;1.70;;;;;;;;;;6349898;22;20173;-90
2021/08/04 18:00:21;;;;;;;3.30;1.50;;;;;;;;;;6354305;22;20221;-90
2021/08/04 18:03:39;;;;;;;6.25;2.10;;;;;;;;;;6354846;22;20160;-89
2021/08/04 18:07:04;;;;;;;3.05;1.45;;;;;;;;;;6353060;22;20191;-88
2021/08/04 18:10:32;;;;;;;2.55;1.55;;;;;;;;;;6354814;22;20192;-89
2021/08/04 18:13:51;;;;;;;2.53;1.35;;;;;;;;;;6355777;22;20244;-87
2021/08/04 18:17:09;;;;;;;3.42;1.38;;;;;;;;;;6355019;22;20164;-90
2021/08/04 18:20:46;;;;;;;6.97;1.30;;;;;;;;;;6351058;22;20800;-87
2021/08/04 18:27:40;;;;;;;4.75;1.30;;;;;;;;;;6352795;22;20161;-88
2021/08/04 18:31:10;;;;;;;4.05;1.65;;;;;;;;;;6352658;22;20215;-87
2021/08/04 18:34:27;;;;;;;2.88;1.50;;;;;;;;;;6354419;22;20236;-90
2021/08/04 18:37:53;;;;;;;3.28;1.25;;;;;;;;;;6353439;22;20173;-87
2021/08/04 18:41:12;;;;;;;3.67;1.50;;;;;;;;;;6352469;22;20593;-90
2021/08/04 18:44:56;;;;;;;2.30;1.20;;;;;;;;;;6354436;22;20920;-88
2021/08/04 18:48:16;;;;;;;4.10;1.45;;;;;;;;;;6353117;22;20218;-89
2021/08/04 18:51:45;;;;;;;3.78;1.50;;;;;;;;;;6350745;22;20189;-89
2021/08/04 19:02:10;;;;;;;6.65;2.38;;;;;;;;;;6352046;22;20187;-88
2021/08/04 22:03:08;;;;;;;6.45;3.25;;;;;;;;;;6112925;23;20194;-87
2021/08/04 22:06:15;;;;;;;3.72;2.10;;;;;;;;;;6139430;23;20221;-88
2021/08/04 22:09:20;;;;;;;5.43;2.33;;;;;;;;;;6121222;23;20180;-86
2021/08/04 22:12:25;;;;;;;5.45;2.40;;;;;;;;;;6121325;23;20176;-86
2021/08/04 22:15:30;;;;;;;3.47;1.85;;;;;;;;;;6119571;23;20218;-91
2021/08/04 22:18:38;;;;;;;6.70;2.45;;;;;;;;;;6120545;23;20242;-88
2021/08/04 22:21:46;;;;;;;7.65;2.80;;;;;;;;;;6120897;23;20685;-88
2021/08/04 22:24:51;;;;;;;3.80;2.40;;;;;;;;;;6121313;23;20165;-87
2021/08/04 22:27:55;;;;;;;4.70;3.22;;;;;;;;;;6120532;23;20195;-88
2021/08/04 22:31:00;;;;;;;7.20;4.40;;;;;;;;;;6121057;23;20444;-88
2021/08/04 22:34:05;;;;;;;6.85;3.22;;;;;;;;;;6121056;23;20229;-88
2021/08/04 22:37:12;;;;;;;3.55;2.70;;;;;;;;;;6120904;23;20242;-88
2021/08/04 22:40:17;;;;;;;4.03;2.40;;;;;;;;;;6120538;23;20756;-88
2021/08/04 22:43:22;;;;;;;5.28;2.55;;;;;;;;;;6120928;23;20176;-89
2021/08/04 22:46:26;;;;;;;4.30;2.90;;;;;;;;;;6120688;23;20169;-90
2021/08/04 22:49:31;;;;;;;3.47;2.22;;;;;;;;;;6119681;23;20229;-90
2021/08/04 22:52:37;;;;;;;3.72;1.70;;;;;;;;;;6120005;23;20169;-86
2021/08/04 22:55:42;;;;;;;3.05;1.52;;;;;;;;;;6119695;23;20252;-87
2021/08/04 22:58:47;;;;;;;5.35;1.60;;;;;;;;;;6119992;23;20661;-89
2021/08/04 23:01:52;;;;;;;1.83;1.23;;;;;;;;;;6120085;23;20193;-89
2021/08/04 23:04:57;;;;;;;6.07;3.20;;;;;;;;;;6119327;23;20201;-88
2021/08/04 23:08:04;;;;;;;7.22;3.70;;;;;;;;;;6119419;23;20185;-90
2021/08/04 23:11:10;;;;;;;3.50;2.55;;;;;;;;;;6120037;23;20183;-90
2021/08/04 23:14:15;;;;;;;5.88;3.33;;;;;;;;;;6120392;23;20601;-87
2021/08/04 23:17:20;;;;;;;5.38;3.38;;;;;;;;;;6119991;23;20172;-89
2021/08/04 23:20:25;;;;;;;6.78;3.47;;;;;;;;;;6120235;23;20501;-89
2021/08/04 23:23:31;;;;;;;7.15;3.95;;;;;;;;;;6120026;23;20226;-90
2021/08/04 23:26:36;;;;;;;7.05;4.35;;;;;;;;;;6120259;23;20157;-90
2021/08/04 23:29:41;;;;;;;8.15;4.82;;;;;;;;;;6119395;23;20169;-89
2021/08/04 23:32:46;;;;;;;9.70;5.93;;;;;;;;;;6120624;23;20272;-89
2021/08/04 23:35:50;;;;;;;10.80;5.45;;;;;;;;;;6121535;23;20177;-91
2021/08/04 23:38:57;;;;;;;8.77;5.72;;;;;;;;;;6120910;23;20204;-90
2021/08/04 23:42:02;;;;;;;11.93;7.10;;;;;;;;;;6121064;23;20176;-88
2021/08/04 23:45:07;;;;;;;11.85;6.75;;;;;;;;;;6119833;23;20240;-90
2021/08/04 23:48:13;;;;;;;10.88;6.63;;;;;;;;;;6121454;23;20222;-90
2021/08/04 23:51:18;;;;;;;10.90;6.78;;;;;;;;;;6120335;23;20169;-90
2021/08/04 23:54:24;;;;;;;13.65;7.18;;;;;;;;;;6121452;23;20268;-90
2021/08/04 23:57:30;;;;;;;10.98;6.60;;;;;;;;;;6123435;23;20173;-89
